Bartow, Florida
Current Conditions -  °F | °C
As of 9:55 PM on Saturday 25 Oct 2014 (Local Time) from KBOW Reporting Station
Clear Clear  
Wind Chill: 19°   Ceiling: Unl
Heat Index: 19°   Visibility: 10mi
Dew Point: 10°   Wind: 6mph
Humidity: 56%   Direction: 350°N
Pressure: 30"   Gusts: NA
Location:  27.9°N, 81.84°W
Report Text: KBOW 260155Z AUTO 35005KT 10SM CLR 19/10 A3000 RMK AO2
Loading
Personal Weather Stations






























Interactive Weather Map New forecast layout! Learn more

10-Day Weather Forecast

Advertisements
Track Severe Weather on mobile